Time;durP1;ratioP1;P1;durP2;ratioP2;P2;SDS_P1;SDS_P2;PMS_P1;PMS_P2;Temp;Humidity;BMP_temperature;BMP_pressure;BME280_temperature;BME280_humidity;BME280_pressure;Samples;Min_cycle;Max_cycle;Signal;HPM_P1;HPM_P2
2021/05/31 00:01:42;;;;;;;3.87;2.45;;;;;;;23.21;56.38;99762.33;1785761;77;21082;-67
2021/05/31 00:04:09;;;;;;;3.77;2.83;;;;;;;23.18;56.39;99766.38;1804767;78;22383;-66
2021/05/31 00:07:05;;;;;;;3.22;2.22;;;;;;;23.16;56.42;99765.80;1789557;77;21023;-66
2021/05/31 00:09:33;;;;;;;2.10;1.87;;;;;;;23.14;56.44;99766.56;1792268;78;21570;-67
2021/05/31 00:11:59;;;;;;;4.08;2.83;;;;;;;23.11;56.48;99769.79;1779215;78;21071;-66
2021/05/31 00:14:28;;;;;;;6.17;3.45;;;;;;;23.08;56.50;99764.86;1775532;77;21078;-66
2021/05/31 00:16:55;;;;;;;2.72;2.30;;;;;;;23.07;56.51;99767.30;1770717;78;21144;-66
2021/05/31 00:19:23;;;;;;;2.50;2.30;;;;;;;23.05;56.54;99769.44;1787707;79;21032;-66
2021/05/31 00:21:51;;;;;;;2.87;2.00;;;;;;;23.03;56.56;99768.88;1793361;79;21550;-66
2021/05/31 00:24:17;;;;;;;2.52;2.20;;;;;;;23.02;56.56;99764.48;1779633;78;21072;-67
2021/05/31 00:26:45;;;;;;;2.75;2.00;;;;;;;23.01;56.51;99764.20;1784301;78;21037;-68
2021/05/31 00:29:12;;;;;;;3.55;2.20;;;;;;;23.00;56.54;99767.97;1793383;79;21879;-66
2021/05/31 00:31:40;;;;;;;3.92;2.30;;;;;;;22.97;56.56;99765.23;1770790;78;21086;-68
2021/05/31 00:34:07;;;;;;;2.87;2.30;;;;;;;22.94;56.60;99771.95;1785831;78;21031;-67
2021/05/31 00:36:34;;;;;;;2.60;1.98;;;;;;;22.93;56.64;99770.88;1792208;78;21609;-67
2021/05/31 00:39:01;;;;;;;4.00;2.50;;;;;;;22.93;56.63;99772.22;1779306;78;21154;-68
2021/05/31 00:41:29;;;;;;;2.67;1.90;;;;;;;22.90;56.65;99772.16;1796586;78;21094;-67
2021/05/31 00:43:56;;;;;;;4.03;2.10;;;;;;;22.89;56.61;99769.70;1778856;78;21639;-67
2021/05/31 00:46:22;;;;;;;2.20;1.82;;;;;;;22.87;56.62;99774.03;1778066;79;21043;-67
2021/05/31 00:48:49;;;;;;;2.12;1.90;;;;;;;22.85;56.67;99767.20;1776043;78;21087;-66
2021/05/31 00:51:16;;;;;;;3.98;2.30;;;;;;;22.82;56.67;99772.59;1788725;78;21050;-66
2021/05/31 00:53:42;;;;;;;2.00;1.90;;;;;;;22.80;56.69;99773.37;1788050;78;21731;-66
2021/05/31 00:56:08;;;;;;;2.85;2.20;;;;;;;22.79;56.68;99767.66;1770515;77;21114;-66
2021/05/31 00:58:36;;;;;;;7.67;2.10;;;;;;;22.76;56.72;99770.88;1782088;78;21032;-68
2021/05/31 01:01:05;;;;;;;3.67;1.85;;;;;;;22.74;56.71;99764.90;1786904;79;21270;-67
2021/05/31 01:03:33;;;;;;;4.25;2.00;;;;;;;22.72;56.71;99768.39;1789865;78;21833;-66
2021/05/31 01:06:03;;;;;;;3.12;1.80;;;;;;;22.69;56.71;99764.81;1777868;79;21719;-66
2021/05/31 01:08:48;;;;;;;2.20;2.00;;;;;;;22.68;56.73;99767.25;1780686;78;21102;-67
2021/05/31 01:11:40;;;;;;;2.42;2.22;;;;;;;22.66;56.70;99766.67;1812506;77;21060;-67
2021/05/31 01:14:11;;;;;;;1.82;1.72;;;;;;;22.64;56.74;99771.48;1813595;78;21082;-68
2021/05/31 01:16:48;;;;;;;3.12;2.30;;;;;;;22.60;56.74;99773.05;1805995;78;21018;-68
2021/05/31 01:19:37;;;;;;;2.17;1.67;;;;;;;22.58;56.80;99774.67;1804185;77;21121;-68
2021/05/31 01:22:09;;;;;;;2.20;2.00;;;;;;;22.55;56.80;99774.61;1799736;78;21030;-67
2021/05/31 01:25:14;;;;;;;2.75;1.90;;;;;;;22.54;56.82;99778.92;1816889;77;26966;-67
2021/05/31 01:28:05;;;;;;;2.98;1.77;;;;;;;22.51;56.80;99777.53;1811072;78;21529;-66
2021/05/31 01:30:31;;;;;;;2.05;1.80;;;;;;;22.47;56.83;99780.45;1795139;77;21545;-68
2021/05/31 01:32:58;;;;;;;2.15;1.75;;;;;;;22.43;56.86;99775.23;1811809;78;21288;-67
2021/05/31 01:35:28;;;;;;;2.45;2.25;;;;;;;22.42;56.89;99779.00;1812701;77;21058;-66
2021/05/31 01:37:55;;;;;;;3.87;2.10;;;;;;;22.41;56.89;99778.73;1797844;77;21094;-67
2021/05/31 01:40:22;;;;;;;2.12;1.70;;;;;;;22.41;56.90;99782.78;1797396;78;21054;-66
2021/05/31 01:42:53;;;;;;;3.50;2.10;;;;;;;22.39;56.88;99783.56;1812135;78;21041;-66
2021/05/31 01:45:20;;;;;;;2.30;2.10;;;;;;;22.38;56.91;99783.27;1789554;78;21672;-67
2021/05/31 01:47:46;;;;;;;2.27;2.05;;;;;;;22.36;56.92;99788.91;1802201;78;21096;-69
2021/05/31 01:50:13;;;;;;;2.40;2.17;;;;;;;22.35;56.94;99783.77;1804508;78;21097;-66
2021/05/31 01:52:42;;;;;;;2.35;2.15;;;;;;;22.34;56.93;99788.34;1805518;78;21566;-67
2021/05/31 01:55:10;;;;;;;3.35;1.80;;;;;;;22.34;56.90;99783.47;1801777;78;21579;-66
2021/05/31 01:57:37;;;;;;;1.90;1.80;;;;;;;22.33;56.92;99791.31;1809067;77;21255;-66
2021/05/31 02:00:08;;;;;;;4.47;2.27;;;;;;;22.32;56.90;99790.47;1823825;78;21050;-67
2021/05/31 02:02:34;;;;;;;2.20;2.00;;;;;;;22.32;56.91;99792.37;1796822;77;21505;-67
2021/05/31 02:05:01;;;;;;;2.62;1.80;;;;;;;22.31;56.86;99790.70;1792896;78;21049;-68
2021/05/31 02:07:28;;;;;;;2.25;2.05;;;;;;;22.30;56.87;99790.44;1802271;78;21561;-68
2021/05/31 02:09:55;;;;;;;1.98;1.70;;;;;;;22.28;56.88;99785.27;1804729;77;21086;-68
2021/05/31 02:12:24;;;;;;;4.17;1.72;;;;;;;22.30;56.87;99794.50;1798981;78;21038;-68
2021/05/31 02:15:06;;;;;;;2.40;1.82;;;;;;;22.28;56.87;99792.56;1809891;77;21034;-67
2021/05/31 02:17:56;;;;;;;3.98;1.80;;;;;;;22.27;56.83;99794.46;1797229;78;21573;-67
2021/05/31 02:20:22;;;;;;;3.25;2.02;;;;;;;22.25;56.85;99790.34;1807940;78;21109;-67
2021/05/31 02:22:53;;;;;;;1.92;1.82;;;;;;;22.23;56.91;99788.37;1796080;78;21584;-68
2021/05/31 02:25:19;;;;;;;4.65;2.30;;;;;;;22.21;56.91;99795.92;1808486;78;21045;-69
2021/05/31 02:27:47;;;;;;;3.77;2.30;;;;;;;22.21;56.98;99794.56;1792849;78;21149;-68
2021/05/31 02:30:16;;;;;;;2.70;2.05;;;;;;;22.21;56.96;99795.92;1799008;78;21568;-66
2021/05/31 02:32:53;;;;;;;2.85;1.82;;;;;;;22.19;56.94;99800.22;1799655;77;21494;-69
2021/05/31 02:35:20;;;;;;;2.30;1.90;;;;;;;22.18;56.95;99802.11;1796100;77;21122;-69
2021/05/31 02:37:47;;;;;;;2.02;1.70;;;;;;;22.16;56.99;99800.18;1799511;78;21601;-68
2021/05/31 02:40:15;;;;;;;5.28;4.15;;;;;;;22.15;56.96;99802.58;1789535;78;21058;-67
2021/05/31 02:42:45;;;;;;;3.75;2.50;;;;;;;22.15;57.00;99805.28;1794050;77;21112;-66
2021/05/31 02:45:15;;;;;;;3.67;2.80;;;;;;;22.13;56.99;99804.71;1789354;78;21070;-68
2021/05/31 02:47:41;;;;;;;3.60;2.87;;;;;;;22.13;57.00;99799.30;1808263;78;21700;-66
2021/05/31 02:50:10;;;;;;;3.55;2.65;;;;;;;22.12;57.00;99795.52;1804607;78;21015;-67
2021/05/31 02:52:40;;;;;;;5.90;2.70;;;;;;;22.11;57.04;99800.08;1809948;78;21045;-68
2021/05/31 02:55:15;;;;;;;3.17;2.83;;;;;;;22.10;57.01;99802.51;1787253;77;21074;-68
2021/05/31 02:57:41;;;;;;;3.72;2.80;;;;;;;22.10;57.04;99804.41;1809068;78;21080;-67
2021/05/31 03:00:10;;;;;;;5.08;2.65;;;;;;;22.09;57.08;99803.56;1795797;77;21133;-67
2021/05/31 03:02:38;;;;;;;4.47;2.85;;;;;;;22.09;57.08;99804.09;1796922;77;21109;-68
2021/05/31 03:05:08;;;;;;;3.12;2.83;;;;;;;22.08;57.11;99803.28;1796865;78;21030;-67
2021/05/31 03:07:34;;;;;;;4.90;2.37;;;;;;;22.07;57.09;99798.92;1803487;77;21606;-68
2021/05/31 03:10:01;;;;;;;5.15;2.77;;;;;;;22.07;57.08;99798.92;1782054;77;21074;-67
2021/05/31 03:12:27;;;;;;;3.58;2.42;;;;;;;22.07;57.14;99803.52;1774270;77;21236;-68
2021/05/31 03:14:54;;;;;;;2.62;2.30;;;;;;;22.07;57.15;99804.34;1779824;78;21171;-68
2021/05/31 03:17:21;;;;;;;6.20;2.60;;;;;;;22.06;57.16;99805.92;1773183;79;21022;-67
2021/05/31 03:19:48;;;;;;;3.87;2.87;;;;;;;22.06;57.20;99804.06;1784920;78;21034;-69
2021/05/31 03:22:15;;;;;;;4.35;2.45;;;;;;;22.06;57.20;99796.45;1788589;79;21642;-69
2021/05/31 03:24:41;;;;;;;2.85;2.30;;;;;;;22.07;57.23;99796.77;1772947;78;21047;-67
2021/05/31 03:27:09;;;;;;;3.65;2.77;;;;;;;22.09;57.23;99797.34;1788146;78;21079;-68
2021/05/31 03:29:35;;;;;;;4.80;2.70;;;;;;;22.10;57.25;99801.70;1783353;79;21070;-68
2021/05/31 03:32:02;;;;;;;2.55;2.35;;;;;;;22.10;57.23;99801.16;1773804;79;21059;-67
2021/05/31 03:34:30;;;;;;;2.87;1.98;;;;;;;22.13;57.24;99807.95;1781086;79;21086;-67
2021/05/31 03:36:57;;;;;;;2.80;2.15;;;;;;;22.12;57.22;99801.73;1787522;78;21771;-69
2021/05/31 03:39:23;;;;;;;4.42;2.42;;;;;;;22.14;57.22;99811.78;1782653;78;21094;-67
2021/05/31 03:41:50;;;;;;;3.02;2.50;;;;;;;22.16;57.23;99806.95;1780198;79;21098;-69
2021/05/31 03:44:16;;;;;;;2.87;2.40;;;;;;;22.17;57.22;99808.60;1789687;77;21058;-68
2021/05/31 03:46:43;;;;;;;3.22;2.80;;;;;;;22.19;57.20;99810.53;1737031;80;21042;-68
2021/05/31 03:49:09;;;;;;;5.72;2.40;;;;;;;22.21;57.20;99814.86;1746040;79;21250;-68
2021/05/31 03:51:36;;;;;;;3.98;2.37;;;;;;;22.23;57.23;99807.32;1784559;77;21109;-68
2021/05/31 03:54:04;;;;;;;3.25;2.92;;;;;;;22.24;57.18;99809.78;1776156;79;21031;-68
2021/05/31 03:56:30;;;;;;;3.75;2.37;;;;;;;22.25;57.19;99811.48;1792927;79;21047;-66
2021/05/31 03:58:57;;;;;;;4.03;2.30;;;;;;;22.27;57.17;99813.91;1775307;78;21034;-68
2021/05/31 04:01:24;;;;;;;3.98;2.58;;;;;;;22.28;57.13;99808.80;1796725;79;22477;-67
2021/05/31 04:03:52;;;;;;;3.22;2.62;;;;;;;22.28;57.14;99804.20;1781905;78;21075;-68
2021/05/31 04:06:34;;;;;;;4.42;2.72;;;;;;;22.31;57.12;99811.00;1793705;78;21602;-68
2021/05/31 04:11:37;;;;;;;3.27;2.30;;;;;;;22.33;57.04;99799.44;1807095;78;21041;-69
2021/05/31 04:14:17;;;;;;;2.40;2.20;;;;;;;22.34;57.07;99799.70;1803139;78;21090;-67
2021/05/31 04:16:49;;;;;;;2.45;1.85;;;;;;;22.35;57.12;99800.82;1808516;77;21592;-66
2021/05/31 04:19:17;;;;;;;3.50;2.45;;;;;;;22.37;57.11;99799.23;1806399;77;21104;-67
2021/05/31 04:21:46;;;;;;;3.67;2.72;;;;;;;22.41;57.09;99802.23;1810257;77;21049;-66
2021/05/31 04:24:12;;;;;;;4.75;2.00;;;;;;;22.41;57.04;99799.03;1802121;77;21050;-67
2021/05/31 04:26:39;;;;;;;3.60;2.85;;;;;;;22.44;56.97;99802.58;1813577;77;21642;-68
2021/05/31 04:29:07;;;;;;;2.83;2.25;;;;;;;22.46;56.95;99809.92;1815245;78;21069;-69
2021/05/31 04:31:34;;;;;;;2.70;2.33;;;;;;;22.49;56.92;99804.03;1824549;77;21529;-69
2021/05/31 04:34:02;;;;;;;2.22;2.02;;;;;;;22.50;56.90;99811.09;1805263;77;21066;-70
2021/05/31 04:36:28;;;;;;;6.05;2.40;;;;;;;22.54;56.88;99815.46;1810430;77;21030;-68
2021/05/31 04:38:55;;;;;;;3.08;2.17;;;;;;;22.55;56.82;99812.52;1802619;77;21079;-68
2021/05/31 04:41:21;;;;;;;2.80;2.22;;;;;;;22.57;56.75;99810.38;1820484;77;21129;-68
2021/05/31 04:43:48;;;;;;;2.95;2.30;;;;;;;22.60;56.68;99811.80;1807923;77;22151;-68
2021/05/31 04:46:14;;;;;;;3.67;2.00;;;;;;;22.63;56.69;99815.89;1800771;78;21038;-68
2021/05/31 04:48:41;;;;;;;2.37;2.17;;;;;;;22.64;56.68;99818.36;1802226;77;21045;-67
2021/05/31 04:51:07;;;;;;;4.80;2.37;;;;;;;22.66;56.64;99819.47;1803541;77;21667;-66
2021/05/31 04:53:34;;;;;;;2.22;2.02;;;;;;;22.68;56.63;99822.21;1806293;77;21117;-68
2021/05/31 04:56:05;;;;;;;2.12;1.90;;;;;;;22.70;56.54;99825.49;1823973;77;21097;-68
2021/05/31 04:58:29;;;;;;;2.80;2.35;;;;;;;22.73;56.56;99829.05;1805993;77;21089;-68
2021/05/31 05:00:56;;;;;;;4.00;2.12;;;;;;;22.76;56.49;99827.21;1810303;77;22005;-68
2021/05/31 05:03:23;;;;;;;3.77;2.00;;;;;;;22.81;56.48;99831.06;1810546;77;21058;-67
2021/05/31 05:05:49;;;;;;;4.53;1.77;;;;;;;22.84;56.58;99832.75;1809608;77;21441;-68
2021/05/31 05:08:16;;;;;;;2.83;2.00;;;;;;;22.89;56.47;99836.06;1819026;78;21069;-67
2021/05/31 05:10:43;;;;;;;4.58;2.20;;;;;;;22.92;56.40;99829.62;1786254;77;21539;-68
2021/05/31 05:13:09;;;;;;;3.22;1.90;;;;;;;22.96;56.30;99834.83;1779867;77;21071;-68
2021/05/31 05:15:37;;;;;;;3.42;2.15;;;;;;;22.99;56.29;99832.72;1773018;77;21102;-68
2021/05/31 05:18:05;;;;;;;2.90;2.20;;;;;;;23.02;56.20;99829.49;1788263;79;21054;-68
2021/05/31 05:20:32;;;;;;;5.05;2.22;;;;;;;23.04;56.22;99824.67;1793755;78;21071;-67
2021/05/31 05:22:59;;;;;;;2.50;1.90;;;;;;;23.07;56.13;99835.03;1788107;78;21519;-67
2021/05/31 05:25:26;;;;;;;2.52;2.10;;;;;;;23.09;56.01;99833.70;1770742;78;21071;-67
2021/05/31 05:27:54;;;;;;;5.37;2.20;;;;;;;23.10;55.95;99831.30;1786821;79;21189;-67
2021/05/31 05:30:24;;;;;;;3.67;2.25;;;;;;;23.13;55.99;99833.48;1776298;78;21094;-68
2021/05/31 05:32:51;;;;;;;3.95;2.10;;;;;;;23.15;55.92;99832.70;1778870;77;21067;-68
2021/05/31 05:35:26;;;;;;;3.85;2.45;;;;;;;23.16;55.89;99836.26;1778308;78;21090;-67
2021/05/31 05:40:55;;;;;;;2.98;2.77;;;;;;;23.20;55.88;99836.55;1718679;79;21105;-69
2021/05/31 05:48:21;;;;;;;4.35;2.22;;;;;;;23.20;56.11;99836.55;1780886;78;21126;-67
2021/05/31 05:50:48;;;;;;;2.27;2.00;;;;;;;23.24;56.10;99841.78;1789188;77;21082;-68
2021/05/31 05:53:14;;;;;;;2.33;2.10;;;;;;;23.28;56.37;99834.80;1798632;77;21494;-67
2021/05/31 05:55:40;;;;;;;2.25;1.90;;;;;;;23.32;56.43;99834.03;1786086;78;21043;-69
2021/05/31 05:58:07;;;;;;;2.40;2.20;;;;;;;23.35;56.49;99826.77;1791275;78;21051;-68
2021/05/31 06:00:33;;;;;;;3.25;2.20;;;;;;;23.41;56.52;99839.02;1791407;78;21055;-68
2021/05/31 06:02:59;;;;;;;4.67;2.20;;;;;;;23.45;56.46;99834.73;1792053;79;21629;-68
2021/05/31 06:05:26;;;;;;;2.95;1.90;;;;;;;23.49;56.42;99836.70;1775571;79;21109;-67
2021/05/31 06:07:53;;;;;;;2.80;1.98;;;;;;;23.53;56.35;99835.13;1775151;78;21098;-68
2021/05/31 06:10:19;;;;;;;2.75;1.98;;;;;;;23.57;56.25;99834.09;1785450;78;21347;-67
2021/05/31 06:12:46;;;;;;;2.40;2.17;;;;;;;23.60;56.22;99841.70;1803715;78;21087;-69
2021/05/31 06:15:13;;;;;;;2.30;2.00;;;;;;;23.63;56.19;99839.05;1803450;78;21042;-68
2021/05/31 06:17:41;;;;;;;2.20;2.00;;;;;;;23.65;56.09;99840.42;1802871;78;21087;-67
2021/05/31 06:20:09;;;;;;;2.10;1.90;;;;;;;23.68;55.97;99841.80;1801890;78;21164;-67
2021/05/31 06:22:40;;;;;;;2.02;1.80;;;;;;;23.70;55.87;99836.44;1794636;77;21046;-69
2021/05/31 06:25:10;;;;;;;3.62;2.02;;;;;;;23.73;55.84;99838.63;1793782;77;21074;-68
2021/05/31 06:27:37;;;;;;;2.90;2.08;;;;;;;23.77;55.83;99838.12;1801413;77;21030;-68
2021/05/31 06:30:05;;;;;;;2.60;2.08;;;;;;;23.80;55.73;99837.64;1806425;77;21847;-67
2021/05/31 06:32:32;;;;;;;3.15;2.15;;;;;;;23.83;55.70;99834.43;1803098;78;21040;-68
2021/05/31 06:34:59;;;;;;;2.00;1.80;;;;;;;23.85;55.81;99840.42;1795837;77;21597;-68
2021/05/31 06:37:25;;;;;;;2.30;1.90;;;;;;;23.89;55.72;99834.77;1794265;77;21050;-69
2021/05/31 06:39:52;;;;;;;2.37;1.77;;;;;;;23.90;55.62;99833.16;1796170;77;21058;-70
2021/05/31 06:42:18;;;;;;;4.35;1.72;;;;;;;23.93;55.54;99838.09;1794075;77;22277;-69
2021/05/31 06:44:45;;;;;;;2.92;2.00;;;;;;;23.96;55.58;99835.94;1795856;78;21110;-69
2021/05/31 06:47:12;;;;;;;1.90;1.80;;;;;;;23.97;55.49;99838.41;1806710;78;21085;-70
2021/05/31 06:49:40;;;;;;;2.05;1.85;;;;;;;24.00;55.47;99841.95;1802219;77;21083;-72
2021/05/31 06:52:06;;;;;;;2.75;2.08;;;;;;;24.02;55.44;99843.06;1801984;77;21082;-71
2021/05/31 06:54:33;;;;;;;1.90;1.80;;;;;;;24.05;55.45;99841.17;1807516;78;21695;-72
2021/05/31 06:57:01;;;;;;;2.50;2.10;;;;;;;24.08;55.46;99842.03;1800120;78;21098;-68
2021/05/31 06:59:27;;;;;;;3.17;2.10;;;;;;;24.09;55.50;99842.33;1807717;77;21054;-69
2021/05/31 07:01:54;;;;;;;5.58;1.85;;;;;;;24.10;55.44;99842.05;1804534;78;22160;-71
2021/05/31 07:04:21;;;;;;;2.05;1.90;;;;;;;24.13;55.39;99840.20;1796940;78;21109;-68
2021/05/31 07:06:48;;;;;;;2.62;1.85;;;;;;;24.16;55.31;99842.13;1800653;77;21151;-69
2021/05/31 07:09:14;;;;;;;1.98;1.80;;;;;;;24.18;55.32;99835.35;1798466;78;21549;-68
2021/05/31 07:11:44;;;;;;;4.10;1.85;;;;;;;24.21;55.40;99845.70;1799524;78;21057;-68
2021/05/31 07:14:12;;;;;;;2.25;2.05;;;;;;;24.24;55.38;99841.66;1799923;77;21090;-67
2021/05/31 07:16:40;;;;;;;2.40;2.20;;;;;;;24.25;55.29;99838.69;1801463;77;21101;-68
2021/05/31 07:19:06;;;;;;;2.00;1.80;;;;;;;24.27;55.29;99838.44;1821999;77;21652;-68
2021/05/31 07:21:33;;;;;;;1.77;1.67;;;;;;;24.29;55.28;99845.23;1802067;78;21520;-67
2021/05/31 07:24:00;;;;;;;2.27;1.90;;;;;;;24.31;55.24;99845.80;1806882;77;21070;-68
2021/05/31 07:26:26;;;;;;;1.77;1.67;;;;;;;24.32;55.20;99839.31;1806703;77;21584;-68
2021/05/31 07:28:53;;;;;;;2.15;1.65;;;;;;;24.34;55.19;99845.84;1796040;77;21038;-70
2021/05/31 07:31:19;;;;;;;2.95;2.10;;;;;;;24.35;55.13;99842.04;1806794;77;21081;-67
2021/05/31 07:33:46;;;;;;;1.90;1.80;;;;;;;24.35;55.08;99835.25;1803431;77;21018;-67
2021/05/31 07:36:14;;;;;;;2.10;1.90;;;;;;;24.38;55.00;99846.97;1797071;77;21117;-68
2021/05/31 07:38:41;;;;;;;2.85;1.82;;;;;;;24.39;54.92;99851.31;1790971;78;21092;-68
2021/05/31 07:41:08;;;;;;;1.70;1.60;;;;;;;24.40;54.86;99851.60;1826543;78;21070;-68
2021/05/31 07:43:35;;;;;;;1.70;1.60;;;;;;;24.41;54.87;99849.70;1825788;78;22390;-68
2021/05/31 07:46:03;;;;;;;2.83;1.82;;;;;;;24.42;54.90;99848.09;1807557;77;21069;-67
2021/05/31 07:48:31;;;;;;;2.15;1.82;;;;;;;24.44;54.84;99843.22;1804389;77;21072;-68
2021/05/31 07:51:17;;;;;;;2.00;1.75;;;;;;;24.46;54.81;99846.50;1815072;77;21025;-68
2021/05/31 07:53:52;;;;;;;2.77;1.50;;;;;;;24.49;54.76;99844.64;1806121;77;21018;-69
2021/05/31 07:56:21;;;;;;;3.02;1.80;;;;;;;24.49;54.76;99854.14;1806396;78;21646;-70
2021/05/31 07:58:48;;;;;;;3.25;2.10;;;;;;;24.51;54.83;99852.02;1810712;78;21557;-64
2021/05/31 08:01:15;;;;;;;3.02;2.10;;;;;;;24.54;54.73;99846.59;1805901;77;21097;-62
2021/05/31 08:03:42;;;;;;;2.65;1.82;;;;;;;24.55;52.19;99841.98;1813077;78;21102;-60
2021/05/31 08:06:09;;;;;;;5.20;2.10;;;;;;;24.48;50.87;99839.45;1806191;77;21610;-61
2021/05/31 08:08:36;;;;;;;5.22;2.87;;;;;;;24.48;50.10;99858.47;1803875;78;21186;-61
2021/05/31 08:11:03;;;;;;;3.05;1.90;;;;;;;24.43;49.39;99858.41;1798754;77;21584;-62
2021/05/31 08:13:31;;;;;;;2.12;1.80;;;;;;;24.40;49.09;99858.94;1777966;78;21047;-61
2021/05/31 08:15:57;;;;;;;67.97;60.70;;;;;;;24.38;48.58;99862.42;1792921;79;21039;-61
2021/05/31 08:18:24;;;;;;;96.42;86.08;;;;;;;24.34;48.23;99865.66;1773970;77;21122;-62
2021/05/31 08:20:51;;;;;;;68.65;61.23;;;;;;;24.34;48.17;99866.20;1775894;79;21071;-61
2021/05/31 08:23:17;;;;;;;51.02;45.45;;;;;;;24.33;48.25;99865.91;1782766;77;21148;-63
2021/05/31 08:25:44;;;;;;;38.65;33.65;;;;;;;24.33;48.13;99869.44;1784816;78;21090;-62
2021/05/31 08:28:11;;;;;;;31.85;28.17;;;;;;;24.34;48.21;99871.09;1782155;79;20998;-62
2021/05/31 08:30:41;;;;;;;22.95;20.55;;;;;;;24.36;48.33;99870.00;1784822;78;21071;-64
2021/05/31 08:33:08;;;;;;;19.98;17.90;;;;;;;24.34;47.29;99867.02;1787157;79;21205;-62
2021/05/31 08:35:37;;;;;;;17.10;15.40;;;;;;;24.32;47.80;99868.36;1790328;78;21029;-61
2021/05/31 08:38:04;;;;;;;15.30;13.80;;;;;;;24.32;48.15;99874.60;1784032;79;21006;-60
2021/05/31 08:40:30;;;;;;;14.10;12.68;;;;;;;24.33;48.21;99880.30;1785468;77;21713;-63
2021/05/31 08:42:57;;;;;;;14.18;11.83;;;;;;;24.33;48.23;99874.87;1782459;79;21072;-62
2021/05/31 08:45:25;;;;;;;12.03;10.82;;;;;;;24.34;48.17;99879.78;1778512;79;21130;-60
2021/05/31 08:47:53;;;;;;;9.70;8.25;;;;;;;24.35;48.22;99877.33;1784068;78;21105;-60
2021/05/31 08:50:25;;;;;;;9.55;7.65;;;;;;;24.36;47.75;99870.00;1788531;78;21091;-61
2021/05/31 08:52:52;;;;;;;7.47;6.47;;;;;;;24.36;47.39;99883.58;1773347;79;21118;-61
2021/05/31 08:55:21;;;;;;;7.00;6.30;;;;;;;24.34;46.98;99878.42;1774743;78;21055;-62
2021/05/31 08:57:49;;;;;;;7.30;5.92;;;;;;;24.32;46.80;99875.96;1779230;78;21051;-63
2021/05/31 09:00:24;;;;;;;5.45;4.78;;;;;;;24.32;46.75;99870.53;1775306;79;21090;-62
2021/05/31 09:02:51;;;;;;;11.45;5.40;;;;;;;24.32;46.58;99873.80;1775654;77;21086;-62
2021/05/31 09:05:39;;;;;;;18.12;8.53;;;;;;;24.31;46.39;99873.49;1777715;78;21059;-64
2021/05/31 09:08:13;;;;;;;26.25;10.65;;;;;;;24.29;46.28;99881.08;1774249;77;21055;-62
2021/05/31 09:10:56;;;;;;;16.87;7.62;;;;;;;24.27;46.60;99879.97;1777967;79;21071;-61
2021/05/31 09:13:30;;;;;;;13.15;6.42;;;;;;;24.26;46.82;99882.93;1793566;77;21101;-63
2021/05/31 09:16:18;;;;;;;12.53;6.40;;;;;;;24.25;46.87;99884.02;1800555;78;21054;-67
2021/05/31 09:18:49;;;;;;;8.53;4.45;;;;;;;24.24;46.78;99883.73;1800757;78;21128;-66
2021/05/31 09:21:30;;;;;;;8.70;4.05;;;;;;;24.23;46.42;99888.89;1750184;81;21052;-69
2021/05/31 09:24:03;;;;;;;6.47;3.92;;;;;;;24.22;46.23;99890.79;1780426;79;21839;-66
2021/05/31 09:26:29;;;;;;;7.60;4.10;;;;;;;24.21;46.02;99883.70;1765557;80;21061;-65
2021/05/31 09:29:06;;;;;;;6.90;3.00;;;;;;;24.22;45.94;99888.59;1765962;78;21008;-67
2021/05/31 09:31:33;;;;;;;6.75;2.80;;;;;;;24.21;46.04;99891.04;1774102;80;21143;-66
2021/05/31 09:34:07;;;;;;;5.30;2.80;;;;;;;24.22;46.08;99891.30;1774009;78;21084;-66
2021/05/31 09:36:49;;;;;;;4.37;2.58;;;;;;;24.22;45.99;99891.30;1795372;79;21094;-66
2021/05/31 09:39:16;;;;;;;5.40;2.20;;;;;;;24.22;45.88;99888.59;1783797;79;21055;-66
2021/05/31 09:41:43;;;;;;;3.42;2.15;;;;;;;24.21;45.82;99896.47;1796757;79;21097;-66
2021/05/31 09:44:11;;;;;;;3.37;2.25;;;;;;;24.19;45.64;99898.08;1788580;79;21050;-64
2021/05/31 09:46:43;;;;;;;4.50;2.05;;;;;;;24.19;45.44;99896.72;1789385;79;21117;-65
2021/05/31 09:49:21;;;;;;;3.17;2.27;;;;;;;24.19;45.38;99902.69;1793579;78;21680;-67
2021/05/31 09:51:54;;;;;;;2.75;1.87;;;;;;;24.19;45.20;99905.41;1790624;78;21073;-68
2021/05/31 09:54:42;;;;;;;1.92;1.60;;;;;;;24.16;45.25;99901.83;1791237;78;21086;-68
2021/05/31 09:57:30;;;;;;;2.02;1.90;;;;;;;24.13;45.10;99904.52;1786982;79;21094;-67
2021/05/31 10:00:04;;;;;;;2.87;1.82;;;;;;;24.10;45.27;99901.76;1788767;79;21055;-68
2021/05/31 10:05:48;;;;;;;3.02;2.20;;;;;;;24.07;45.32;99899.57;1784886;78;21081;-63
2021/05/31 10:10:56;;;;;;;5.08;2.60;;;;;;;24.12;46.81;99881.16;1785765;77;21118;-65
2021/05/31 10:13:24;;;;;;;5.53;2.65;;;;;;;24.19;47.14;99882.33;1796914;78;21557;-65
2021/05/31 10:15:50;;;;;;;2.92;2.30;;;;;;;24.25;47.35;99879.41;1793877;79;21110;-64
2021/05/31 10:18:19;;;;;;;4.28;2.72;;;;;;;24.32;47.50;99881.94;1786932;78;21078;-65
2021/05/31 10:20:47;;;;;;;3.60;2.35;;;;;;;24.40;47.68;99879.30;1793301;79;21043;-66
2021/05/31 10:23:14;;;;;;;4.20;2.30;;;;;;;24.45;47.76;99885.57;1788085;78;21058;-62
2021/05/31 10:25:46;;;;;;;3.90;2.33;;;;;;;24.53;47.79;99887.88;1791691;79;21090;-62
2021/05/31 10:28:17;;;;;;;4.35;2.65;;;;;;;24.61;47.77;99884.39;1791523;79;21078;-61
2021/05/31 10:30:49;;;;;;;4.33;2.10;;;;;;;24.67;47.79;99882.03;1790724;79;21059;-63
2021/05/31 10:33:21;;;;;;;3.92;2.22;;;;;;;24.74;47.80;99883.97;1790264;78;21872;-61
2021/05/31 10:35:49;;;;;;;3.67;2.05;;;;;;;24.81;47.79;99884.59;1779744;78;21562;-62
2021/05/31 10:38:19;;;;;;;2.92;2.40;;;;;;;24.88;47.80;99884.39;1788083;78;21120;-61
2021/05/31 10:40:49;;;;;;;2.67;1.92;;;;;;;24.92;47.78;99889.03;1789522;79;21027;-61
2021/05/31 10:43:19;;;;;;;2.65;1.80;;;;;;;24.99;47.75;99889.34;1787240;79;21028;-62
2021/05/31 10:45:48;;;;;;;2.35;2.00;;;;;;;25.04;47.77;99894.28;1799304;78;21154;-62
2021/05/31 10:48:22;;;;;;;3.58;2.00;;;;;;;25.08;47.71;99893.23;1786261;78;21027;-61
2021/05/31 10:50:58;;;;;;;2.75;2.22;;;;;;;25.11;47.66;99890.81;1719484;81;21043;-61
2021/05/31 10:53:33;;;;;;;2.83;2.00;;;;;;;25.14;47.64;99886.74;1736200;81;21067;-62
2021/05/31 10:56:06;;;;;;;3.22;1.90;;;;;;;25.17;47.61;99890.31;1736913;79;21071;-63
2021/05/31 10:58:49;;;;;;;2.20;2.00;;;;;;;25.19;47.51;99893.59;1780031;79;21070;-61
2021/05/31 11:01:19;;;;;;;2.27;1.67;;;;;;;25.22;47.49;99891.72;1773038;78;21015;-61
2021/05/31 11:04:04;;;;;;;2.83;2.02;;;;;;;25.25;47.34;99885.77;1794492;78;21013;-63
2021/05/31 11:06:43;;;;;;;2.00;1.75;;;;;;;25.28;47.14;99878.98;1771363;79;21063;-62
2021/05/31 11:09:17;;;;;;;2.27;2.02;;;;;;;25.33;47.04;99877.66;1782086;79;21062;-61
2021/05/31 11:11:51;;;;;;;2.17;1.77;;;;;;;25.38;47.03;99885.02;1786925;78;21055;-62
2021/05/31 11:14:37;;;;;;;2.27;1.92;;;;;;;25.44;47.11;99887.52;1811702;78;21620;-61
2021/05/31 11:17:11;;;;;;;3.02;1.95;;;;;;;25.47;47.01;99882.90;1808875;77;21061;-60
2021/05/31 11:19:48;;;;;;;1.70;1.60;;;;;;;25.53;46.97;99882.94;1811796;78;21155;-62
2021/05/31 11:22:23;;;;;;;2.55;1.60;;;;;;;25.56;47.01;99887.31;1810188;78;21206;-63
2021/05/31 11:25:06;;;;;;;2.12;1.55;;;;;;;25.61;46.93;99887.88;1805158;77;21070;-64
2021/05/31 11:28:22;;;;;;;1.60;1.50;;;;;;;25.69;46.78;99883.28;1802040;79;22610;-63
2021/05/31 11:30:49;;;;;;;1.42;1.32;;;;;;;25.67;46.64;99890.37;1772757;80;21103;-63
2021/05/31 11:33:16;;;;;;;7.78;5.22;;;;;;;25.72;46.20;99890.11;1767248;80;21203;-62
2021/05/31 11:35:47;;;;;;;13.03;6.35;;;;;;;25.73;46.04;99884.94;1773433;80;20951;-62
2021/05/31 11:38:19;;;;;;;7.22;4.60;;;;;;;25.74;46.09;99877.88;1755649;80;21645;-66
2021/05/31 11:40:45;;;;;;;6.00;4.40;;;;;;;25.77;46.10;99880.08;1760616;79;20963;-62
2021/05/31 11:43:14;;;;;;;9.23;4.30;;;;;;;25.78;46.22;99871.36;1765429;80;21143;-63
2021/05/31 11:45:43;;;;;;;8.08;3.25;;;;;;;25.81;46.31;99875.73;1761886;80;21670;-62
2021/05/31 11:48:12;;;;;;;4.58;3.20;;;;;;;25.80;46.27;99874.09;1755999;80;21630;-62
2021/05/31 11:50:43;;;;;;;5.45;3.08;;;;;;;25.81;46.16;99874.92;1759304;80;21079;-64
2021/05/31 11:53:19;;;;;;;4.42;2.45;;;;;;;25.81;46.00;99868.94;1755459;80;21091;-62
2021/05/31 11:55:46;;;;;;;4.25;3.12;;;;;;;25.81;45.99;99869.48;1767456;79;21630;-64
2021/05/31 11:58:14;;;;;;;4.35;2.75;;;;;;;25.81;45.91;99876.28;1754359;80;21574;-63
2021/05/31 12:00:42;;;;;;;3.10;2.80;;;;;;;25.81;45.92;99879.01;1698743;80;21074;-66